DTTX/SFA METAR and TAF weather

Enter ICAO airport designator
Station Type Date Time Source
DTTX METAR 2019/06/19 03:00 UTC NOAA

DTTX 190300Z 30002KT CAVOK 20/15 Q1014


Station Type Date Time Source
DTTX Decoded METAR 2019/06/19 03:00 UTC NOAA

Sfax El-Maou, Tunisia (DTTX) 34-43N 010-41E 23M
Jun 18, 2019 - 11:00 PM EDT / 2019.06.19 0300 UTC
Wind: from the WNW (300 degrees) at 2 MPH (2 KT):0
Visibility: greater than 7 mile(s):0
Temperature: 68 F (20 C)
Dew Point: 59 F (15 C)
Relative Humidity: 72%
Pressure (altimeter): 29.94 in. Hg (1014 hPa)
ob: DTTX 190300Z 30002KT CAVOK 20/15 Q1014
cycle: 3

Station Type Date Time Source
DTTX TAF 2019/06/18 18:45 UTC NOAA

TAF COR DTTX 181700Z 1818/1918 06012KT CAVOK
BECMG 1823/1901 26002KT

Example: see airport list